Daihatsumaru — JD2764 — position and weather

sailwx.info

Track history (hours):
 
Tides and Currents Weather Stations Pressure Air Temp Water Temp Dewpoint Dewpoint Depression Visibility Wind Speed Wind Dir Waves Ship Positions

Daihatsumaru

Last reported at 2014-Aug-01 04:14 UTC. Time now 2014-Aug-01 16:01 UTC.
Position N 34°35' E 134°53'.

Length 106 m; draft 4.5 m.

Type: Cargo ship. MMSI: 431000701.

Date/timePositionNaut miles runAvg speedWind from/ knotsBaromVisibWave heightAir tempDewpointWater temp
2014-Aug-01 04:14N 34°35' E 134°53'1014.9
2014-Aug-01 03:33N 34°36' E 135°05'1414.5
2014-Aug-01 02:34N 34°40' E 135°22'2 1.7
2014-Aug-01 01:33N 34°41' E 135°23'0 0.0
2014-Aug-01 00:27N 34°41' E 135°23'0 0.0
2014-Jul-31 23:21N 34°41' E 135°23'2 2.5
2014-Jul-31 22:33N 34°40' E 135°21'1 0.7
2014-Jul-31 21:30N 34°40' E 135°21'0 0.0
2014-Jul-31 20:24N 34°40' E 135°21'3 3.6
2014-Jul-31 19:33N 34°38' E 135°18'1313.4
2014-Jul-31 18:33N 34°37' E 135°02'12013.3
2014-Jul-31 09:33N 33°59' E 132°44'10 0.6
2014-Jul-30 18:15N 33°52' E 132°35'123 9.6
2014-Jul-30 05:29N 34°36' E 134°54'1213.1
2014-Jul-30 04:33N 34°36' E 135°09'1313.2
2014-Jul-30 03:33N 34°41' E 135°23'0 0.0
2014-Jul-30 02:26N 34°41' E 135°23'0 0.0
2014-Jul-30 01:32N 34°41' E 135°23'0 0.0
2014-Jul-30 00:20N 34°41' E 135°23'0 0.0
2014-Jul-29 23:32N 34°41' E 135°23'2 2.1
2014-Jul-29 22:33N 34°40' E 135°21'1 0.9
2014-Jul-29 21:30N 34°40' E 135°20'0 0.0
2014-Jul-29 20:24N 34°40' E 135°20'0 0.0
2014-Jul-29 19:33N 34°40' E 135°20'10 9.8
2014-Jul-29 18:33N 34°35' E 135°10'1515.2
2014-Jul-29 17:33N 34°34' E 134°51'11213.2
2014-Jul-29 09:06N 33°58' E 132°44'  
2014-Jul-26 16:12N 33°57' E 132°41'11710.0
2014-Jul-26 04:32N 34°36' E 134°54'1111.6
2014-Jul-26 03:33N 34°36' E 135°08'1313.5
2014-Jul-26 02:34N 34°41' E 135°23'0 0.3
2014-Jul-26 01:23N 34°41' E 135°23'0 0.0
2014-Jul-26 00:29N 34°41' E 135°23'0 0.0
2014-Jul-25 23:32N 34°41' E 135°23'2 2.4
2014-Jul-25 22:33N 34°40' E 135°21'0 0.1
2014-Jul-25 21:26N 34°40' E 135°21'0 0.0
2014-Jul-25 20:32N 34°40' E 135°21'0 0.0
2014-Jul-25 19:32N 34°40' E 135°21'6 5.8
2014-Jul-25 18:33N 34°36' E 135°16'1514.8
2014-Jul-25 17:33N 34°36' E 134°58'11714.2
2014-Jul-25 09:18N 33°58' E 132°44'2 0.1
2014-Jul-24 16:26N 33°57' E 132°41'117 9.8
2014-Jul-24 04:30N 34°36' E 134°54'1111.7
2014-Jul-24 03:33N 34°35' E 135°08'1414.1
2014-Jul-24 02:33N 34°41' E 135°23'0 0.2
2014-Jul-24 01:28N 34°41' E 135°23'0 0.0
2014-Jul-24 00:28N 34°41' E 135°23'0 0.0
2014-Jul-23 23:28N 34°41' E 135°23'0 0.0
2014-Jul-23 22:33N 34°41' E 135°23'3 2.9
2014-Jul-23 21:31N 34°40' E 135°20'0 0.0
2014-Jul-23 20:19N 34°40' E 135°20'0 0.0
2014-Jul-23 19:31N 34°40' E 135°20'0 0.2
2014-Jul-23 18:33N 34°39' E 135°20'1413.9
2014-Jul-23 17:33N 34°35' E 135°04'124 4.8
2014-Jul-22 15:33N 33°57' E 132°41'  
Track history (hours):
 
Tides and Currents Weather Stations Pressure Air Temp Water Temp Dewpoint Dewpoint Depression Visibility Wind Speed Wind Dir Waves Ship Positions

Daihatsumaru

Last reported at 2014-Aug-01 04:14 UTC. Time now 2014-Aug-01 16:01 UTC.
Position N 34°35' E 134°53'.

Length 106 m; draft 4.5 m.

Type: Cargo ship. MMSI: 431000701.

Date/timePositionNaut miles runAvg speedWind from/ knotsBaromVisibWave heightAir tempDewpointWater temp
2014-Aug-01 04:14N 34°35' E 134°53'1014.9
2014-Aug-01 03:33N 34°36' E 135°05'1414.5
2014-Aug-01 02:34N 34°40' E 135°22'2 1.7
2014-Aug-01 01:33N 34°41' E 135°23'0 0.0
2014-Aug-01 00:27N 34°41' E 135°23'0 0.0
2014-Jul-31 23:21N 34°41' E 135°23'2 2.5
2014-Jul-31 22:33N 34°40' E 135°21'1 0.7
2014-Jul-31 21:30N 34°40' E 135°21'0 0.0
2014-Jul-31 20:24N 34°40' E 135°21'3 3.6
2014-Jul-31 19:33N 34°38' E 135°18'1313.4
2014-Jul-31 18:33N 34°37' E 135°02'12013.3
2014-Jul-31 09:33N 33°59' E 132°44'10 0.6
2014-Jul-30 18:15N 33°52' E 132°35'123 9.6
2014-Jul-30 05:29N 34°36' E 134°54'1213.1
2014-Jul-30 04:33N 34°36' E 135°09'1313.2
2014-Jul-30 03:33N 34°41' E 135°23'0 0.0
2014-Jul-30 02:26N 34°41' E 135°23'0 0.0
2014-Jul-30 01:32N 34°41' E 135°23'0 0.0
2014-Jul-30 00:20N 34°41' E 135°23'0 0.0
2014-Jul-29 23:32N 34°41' E 135°23'2 2.1
2014-Jul-29 22:33N 34°40' E 135°21'1 0.9
2014-Jul-29 21:30N 34°40' E 135°20'0 0.0
2014-Jul-29 20:24N 34°40' E 135°20'0 0.0
2014-Jul-29 19:33N 34°40' E 135°20'10 9.8
2014-Jul-29 18:33N 34°35' E 135°10'1515.2
2014-Jul-29 17:33N 34°34' E 134°51'11213.2
2014-Jul-29 09:06N 33°58' E 132°44'  
2014-Jul-26 16:12N 33°57' E 132°41'11710.0
2014-Jul-26 04:32N 34°36' E 134°54'1111.6
2014-Jul-26 03:33N 34°36' E 135°08'1313.5
2014-Jul-26 02:34N 34°41' E 135°23'0 0.3
2014-Jul-26 01:23N 34°41' E 135°23'0 0.0
2014-Jul-26 00:29N 34°41' E 135°23'0 0.0
2014-Jul-25 23:32N 34°41' E 135°23'2 2.4
2014-Jul-25 22:33N 34°40' E 135°21'0 0.1
2014-Jul-25 21:26N 34°40' E 135°21'0 0.0
2014-Jul-25 20:32N 34°40' E 135°21'0 0.0
2014-Jul-25 19:32N 34°40' E 135°21'6 5.8
2014-Jul-25 18:33N 34°36' E 135°16'1514.8
2014-Jul-25 17:33N 34°36' E 134°58'11714.2
2014-Jul-25 09:18N 33°58' E 132°44'2 0.1
2014-Jul-24 16:26N 33°57' E 132°41'117 9.8
2014-Jul-24 04:30N 34°36' E 134°54'1111.7
2014-Jul-24 03:33N 34°35' E 135°08'1414.1
2014-Jul-24 02:33N 34°41' E 135°23'0 0.2
2014-Jul-24 01:28N 34°41' E 135°23'0 0.0
2014-Jul-24 00:28N 34°41' E 135°23'0 0.0
2014-Jul-23 23:28N 34°41' E 135°23'0 0.0
2014-Jul-23 22:33N 34°41' E 135°23'3 2.9
2014-Jul-23 21:31N 34°40' E 135°20'0 0.0
2014-Jul-23 20:19N 34°40' E 135°20'0 0.0
2014-Jul-23 19:31N 34°40' E 135°20'0 0.2
2014-Jul-23 18:33N 34°39' E 135°20'1413.9
2014-Jul-23 17:33N 34°35' E 135°04'124 4.8
2014-Jul-22 15:33N 33°57' E 132°41'  

Dump ship's entire track history